Agreda, Spain
Current Conditions -  °F | °C
As of 9:00 PM on Wednesday 26 Nov 2014 (Local Time) from LELO Reporting Station
Few Clouds Few Clouds  
Wind Chill: 46°   Ceiling: Unl
Heat Index: 46°   Visibility: 6mi
Dew Point: 46°   Wind: 3mph
Humidity: 100%   Direction: 160°SSE
Pressure: 29.83"   Gusts: NA
Location:  41.86°N, 1.92°W
Report Text: LELO 262000Z 16003KT 100V170 9999 FEW038 08/08 Q1010
Loading
Personal Weather Stations






























Interactive Weather Map New forecast layout! Learn more

10-Day Weather Forecast

Advertisements
Track Severe Weather on mobile